To NAV CANADA Home Page Login to a new session Search on AWWS site Feedback and Comments Disclaimer Vers la page française équivalente Tips FAQ What's new on the site To the Forecasts and Observations / NOTAM section To "File a Flight Plan" website Publications and other links Update of the User's profile FIC Telephone Numbers My Weather Data Folder Route Weather Data Regional Weather Data Local Weather Data To the Forecasts and Observations / NOTAM section
Request Generated 04/25/2014 at 01:06:15 UTC . Weather information available at that time is displayed.

METAR/TAF

MONCTON/GREATER MONCTON INTL/NB    

METAR CYQM 250100Z 01021G27KT 1 1/4SM -SN BKN005 OVC012 M00/M02 A2969
RMK SF6SF2 /S01/ SLP057=
SPECI CYQM 250025Z 36022G28KT 1 1/2SM -SN OVC006 M00/M02 A2968 RMK
SF8 SLP055=
METAR CYQM 250000Z CCA 01021KT 5/8SM R06/4000VP6000FT/D
R29/3500VP6000FT/D -SN OVC005 M00/M02 A2967 RMK SF8 /S04/ SLP051=
METAR CYQM 250000Z 01021KT 5/8SM -SN OVC005 M00/M02 A2967 RMK SF8
SLP051=
SPECI CYQM 242334Z 01018G26KT 1SM R06/P6000FT/U R29/P6000FT/D -SN
BKN010 OVC020 M00/M01 A2966 RMK SF7SC1 SLP045=
SPECI CYQM 242313Z 36019KT 5/8SM R06/P6000FT/D R29/6000FT/D -SN
OVC004 M00/M01 A2965 RMK SF8 PRESRR SLP042=
METAR CYQM 242300Z 01016G29KT 1 1/4SM -SN BKN006 OVC013 M00/M01 A2964
RMK SF6SF2 PRESRR SLP040=

TAF CYQM 242338Z 2500/2524 01018G28KT 3/4SM -SN OVC003 TEMPO
2500/2502 3SM -SN OVC010
FM250200 01015G25KT 4SM -SN OVC008 TEMPO 2502/2508 6SM -SN PROB30
2502/2508 3SM -FZDZ BR
FM250800 34012G22KT P6SM -SN OVC008
FM251400 34015G25KT P6SM OVC015
FM252000 35012KT P6SM BKN025
RMK NXT FCST BY 250600Z=
Your time UTC time
Weather data provided by Environment Canada and NAV CANADA